Time;durP1;ratioP1;P1;durP2;ratioP2;P2;SDS_P1;SDS_P2;PMS_P1;PMS_P2;Temp;Humidity;BMP_temperature;BMP_pressure;BME280_temperature;BME280_humidity;BME280_pressure;Samples;Min_cycle;Max_cycle;Signal;HPM_P1;HPM_P2
2022/07/07 00:00:44;;;;;;;7.28;3.70;;;23.80;99.90;;;;;;6346590;22;20010;-79
2022/07/07 00:03:48;;;;;;;6.53;3.03;;;23.80;99.90;;;;;;6346141;22;20034;-78
2022/07/07 00:06:52;;;;;;;9.30;3.25;;;23.80;99.90;;;;;;6346355;22;20010;-79
2022/07/07 00:09:56;;;;;;;5.00;2.95;;;23.80;99.90;;;;;;6346702;22;20021;-78
2022/07/07 00:13:01;;;;;;;10.65;3.45;;;23.80;99.90;;;;;;6346452;22;20018;-78
2022/07/07 00:16:04;;;;;;;11.57;3.35;;;23.70;99.90;;;;;;6346504;22;20022;-79
2022/07/07 00:19:08;;;;;;;8.98;3.35;;;23.70;99.90;;;;;;6346591;22;20014;-79
2022/07/07 00:22:12;;;;;;;7.32;3.40;;;23.70;99.90;;;;;;6342927;22;20022;-79
2022/07/07 00:25:16;;;;;;;5.80;3.30;;;23.70;99.90;;;;;;6346007;22;20338;-78
2022/07/07 00:28:20;;;;;;;6.13;3.13;;;23.70;99.90;;;;;;6346216;22;20011;-79
2022/07/07 00:31:24;;;;;;;7.60;3.33;;;23.70;99.90;;;;;;6346414;22;20021;-79
2022/07/07 00:34:28;;;;;;;5.85;3.13;;;23.60;99.90;;;;;;6345719;22;20014;-79
2022/07/07 00:37:32;;;;;;;5.30;2.95;;;23.60;99.90;;;;;;6346432;22;20010;-79
2022/07/07 00:40:36;;;;;;;8.85;3.28;;;23.70;99.90;;;;;;6346802;22;20013;-79
2022/07/07 00:43:42;;;;;;;8.07;3.90;;;23.60;99.90;;;;;;6345885;22;20014;-78
2022/07/07 00:46:49;;;;;;;9.70;3.35;;;23.50;99.90;;;;;;6346148;22;20018;-78
2022/07/07 00:49:54;;;;;;;8.75;3.42;;;23.50;99.90;;;;;;6346181;22;20022;-79
2022/07/07 00:52:58;;;;;;;5.45;3.42;;;23.60;99.90;;;;;;6327373;22;20018;-79
2022/07/07 00:56:03;;;;;;;6.28;3.80;;;23.50;99.90;;;;;;6345962;22;20448;-78
2022/07/07 00:59:07;;;;;;;7.43;3.38;;;23.50;99.90;;;;;;6345841;22;20022;-78
2022/07/07 01:02:11;;;;;;;6.00;3.17;;;23.40;99.90;;;;;;6346163;22;20017;-79
2022/07/07 01:05:16;;;;;;;7.65;3.08;;;23.50;99.90;;;;;;6345152;22;20014;-79
2022/07/07 01:08:21;;;;;;;6.25;3.05;;;23.40;99.90;;;;;;6345485;22;20018;-79
2022/07/07 01:11:25;;;;;;;5.88;3.20;;;23.40;99.90;;;;;;6345912;22;20634;-79
2022/07/07 01:14:29;;;;;;;13.98;3.50;;;23.40;99.90;;;;;;6345437;22;20018;-79
2022/07/07 01:17:34;;;;;;;8.02;3.25;;;23.40;99.90;;;;;;6326746;22;20014;-79
2022/07/07 01:20:44;;;;;;;7.05;2.85;;;23.40;99.90;;;;;;6345776;22;20469;-80
2022/07/07 01:23:48;;;;;;;6.00;2.95;;;23.40;99.90;;;;;;6335140;22;20037;-81
2022/07/07 01:27:11;;;;;;;4.57;2.85;;;23.40;99.90;;;;;;6346012;22;20022;-81
2022/07/07 01:30:15;;;;;;;6.45;3.10;;;23.40;99.90;;;;;;6345739;22;20014;-80
2022/07/07 01:33:19;;;;;;;4.20;2.80;;;23.30;99.90;;;;;;6326210;22;20022;-80
2022/07/07 01:36:23;;;;;;;5.28;2.80;;;23.30;99.90;;;;;;6345839;22;20034;-80
2022/07/07 01:39:27;;;;;;;5.68;3.30;;;23.30;99.90;;;;;;6345629;22;20014;-80
2022/07/07 01:42:31;;;;;;;4.93;2.92;;;23.20;99.90;;;;;;6345769;22;20524;-80
2022/07/07 01:45:35;;;;;;;9.27;3.40;;;23.20;99.90;;;;;;6345411;22;20022;-80
2022/07/07 01:48:40;;;;;;;6.18;3.80;;;23.10;99.90;;;;;;6345695;22;20022;-80
2022/07/07 01:51:44;;;;;;;7.32;3.35;;;23.10;99.90;;;;;;6326845;22;20026;-81
2022/07/07 01:54:48;;;;;;;8.98;3.10;;;23.00;99.90;;;;;;6345432;22;20022;-79
2022/07/07 01:57:52;;;;;;;7.75;2.95;;;22.90;99.90;;;;;;6345748;22;20330;-80
2022/07/07 02:00:56;;;;;;;5.85;3.03;;;22.80;99.90;;;;;;6345863;22;20022;-80
2022/07/07 02:04:00;;;;;;;4.45;2.88;;;22.80;99.90;;;;;;6345038;22;20018;-80
2022/07/07 02:07:04;;;;;;;4.85;3.20;;;22.80;99.90;;;;;;6345704;22;20025;-80
2022/07/07 02:10:07;;;;;;;6.20;3.10;;;22.90;99.90;;;;;;6345516;22;20462;-80
2022/07/07 02:13:11;;;;;;;4.25;2.58;;;22.80;99.90;;;;;;6345311;22;20033;-81
2022/07/07 02:16:18;;;;;;;5.68;2.97;;;22.90;99.90;;;;;;6345456;22;20025;-81
2022/07/07 02:19:22;;;;;;;9.25;3.40;;;22.90;99.90;;;;;;6347229;22;20034;-80
2022/07/07 02:22:27;;;;;;;4.40;3.30;;;22.80;99.90;;;;;;6342696;22;20468;-81
2022/07/07 02:25:30;;;;;;;3.33;2.88;;;22.70;99.90;;;;;;6327986;22;20022;-80
2022/07/07 02:28:34;;;;;;;5.63;3.63;;;22.50;99.90;;;;;;6347258;22;20022;-80
2022/07/07 02:31:39;;;;;;;6.93;3.67;;;22.30;99.90;;;;;;6347372;22;20017;-81
2022/07/07 02:34:43;;;;;;;4.40;3.60;;;22.00;99.90;;;;;;6346625;22;20018;-80
2022/07/07 02:37:47;;;;;;;8.02;3.60;;;21.90;99.90;;;;;;6347509;22;20037;-80
2022/07/07 02:40:51;;;;;;;8.13;3.67;;;21.70;99.90;;;;;;6347439;22;20014;-80
2022/07/07 02:43:55;;;;;;;8.63;3.80;;;21.60;99.90;;;;;;6347153;22;20017;-80
2022/07/07 02:46:59;;;;;;;8.20;4.25;;;21.60;99.90;;;;;;6347378;22;20014;-80
2022/07/07 02:50:03;;;;;;;11.63;4.32;;;21.50;99.90;;;;;;6347746;22;20338;-80
2022/07/07 02:53:08;;;;;;;7.90;4.93;;;21.50;99.90;;;;;;6347426;22;20069;-80
2022/07/07 02:56:12;;;;;;;8.40;4.50;;;21.50;99.90;;;;;;6347269;22;20359;-80
2022/07/07 02:59:16;;;;;;;4.80;3.88;;;21.40;99.90;;;;;;6347276;22;20030;-80
2022/07/07 03:02:20;;;;;;;10.73;4.25;;;21.40;99.90;;;;;;6310080;22;20281;-80
2022/07/07 03:05:24;;;;;;;6.30;3.83;;;21.50;99.90;;;;;;6346788;22;20019;-80
2022/07/07 03:08:28;;;;;;;9.90;4.57;;;21.50;99.90;;;;;;6328037;22;20020;-80
2022/07/07 03:11:33;;;;;;;7.30;4.10;;;21.60;99.90;;;;;;6327915;22;20334;-80
2022/07/07 03:14:37;;;;;;;12.43;4.35;;;21.60;99.90;;;;;;6346545;22;20018;-80
2022/07/07 03:17:44;;;;;;;7.00;3.70;;;21.70;99.90;;;;;;6347289;22;20029;-80
2022/07/07 03:20:48;;;;;;;9.10;3.97;;;21.70;99.90;;;;;;6328258;22;20034;-80
2022/07/07 03:23:52;;;;;;;6.63;4.03;;;21.70;99.90;;;;;;6346658;22;20014;-80
2022/07/07 03:26:56;;;;;;;8.02;4.25;;;21.70;99.90;;;;;;6347016;22;20018;-80
2022/07/07 03:30:00;;;;;;;8.65;4.40;;;21.60;99.90;;;;;;6327406;22;20334;-80
2022/07/07 03:33:04;;;;;;;6.13;3.88;;;21.60;99.90;;;;;;6347071;22;20323;-80
2022/07/07 03:36:08;;;;;;;5.97;4.35;;;21.40;99.90;;;;;;6346744;22;20358;-80
2022/07/07 03:39:12;;;;;;;8.73;4.80;;;21.40;99.90;;;;;;6327774;22;20465;-80
2022/07/07 03:42:16;;;;;;;5.25;4.45;;;21.30;99.90;;;;;;6346825;22;20342;-80
2022/07/07 03:45:20;;;;;;;8.65;4.57;;;21.20;99.90;;;;;;6326829;22;20017;-80
2022/07/07 03:48:24;;;;;;;12.50;5.57;;;20.90;99.90;;;;;;6346765;22;20342;-80
2022/07/07 03:51:28;;;;;;;14.80;5.57;;;20.90;99.90;;;;;;6346916;22;20029;-80
2022/07/07 03:54:32;;;;;;;13.98;5.78;;;20.80;99.90;;;;;;6346049;22;20043;-81
2022/07/07 03:57:38;;;;;;;8.55;5.20;;;20.70;99.90;;;;;;6346853;22;20021;-80
2022/07/07 04:00:42;;;;;;;7.45;5.30;;;20.70;99.90;;;;;;6346445;22;20034;-80
2022/07/07 04:03:45;;;;;;;10.27;5.63;;;20.70;99.90;;;;;;6326994;22;20021;-80
2022/07/07 04:06:49;;;;;;;7.15;5.18;;;20.80;99.90;;;;;;6346543;22;20018;-80
2022/07/07 04:09:54;;;;;;;10.05;5.30;;;20.80;99.90;;;;;;6346430;22;20112;-80
2022/07/07 04:13:01;;;;;;;10.07;5.78;;;20.90;99.90;;;;;;6346478;22;20476;-80
2022/07/07 04:16:05;;;;;;;10.05;6.65;;;21.00;99.90;;;;;;6346322;22;20018;-80
2022/07/07 04:19:09;;;;;;;12.38;7.43;;;21.10;99.90;;;;;;6346206;22;20010;-80
2022/07/07 04:22:13;;;;;;;17.30;7.63;;;21.20;99.90;;;;;;6323478;22;20018;-80
2022/07/07 04:25:18;;;;;;;11.55;6.35;;;21.30;99.90;;;;;;6326495;22;20022;-80
2022/07/07 04:28:22;;;;;;;9.75;5.85;;;21.20;99.90;;;;;;6346394;22;20018;-80
2022/07/07 04:31:26;;;;;;;14.68;6.97;;;21.10;99.90;;;;;;6343274;22;20213;-80
2022/07/07 04:34:30;;;;;;;8.63;6.10;;;21.30;99.90;;;;;;6326930;22;20018;-80
2022/07/07 04:37:34;;;;;;;9.32;5.10;;;22.40;99.90;;;;;;6346451;22;20013;-80
2022/07/07 04:40:38;;;;;;;7.47;4.55;;;23.50;99.90;;;;;;6346302;22;20021;-80
2022/07/07 04:43:42;;;;;;;8.23;4.80;;;24.60;99.90;;;;;;6345565;22;20014;-80
2022/07/07 04:46:46;;;;;;;7.05;4.20;;;25.80;99.90;;;;;;6327189;22;20018;-80
2022/07/07 04:49:51;;;;;;;5.75;3.80;;;27.20;99.90;;;;;;6347212;22;20022;-80
2022/07/07 04:52:55;;;;;;;7.65;3.92;;;28.60;99.90;;;;;;6347389;22;20018;-80
2022/07/07 04:56:00;;;;;;;6.28;3.20;;;29.60;99.90;;;;;;6347670;22;20021;-80
2022/07/07 04:59:04;;;;;;;5.25;3.13;;;30.10;99.90;;;;;;6328143;22;20480;-80
2022/07/07 05:02:08;;;;;;;6.63;3.58;;;30.10;99.60;;;;;;6327660;22;20021;-81
2022/07/07 05:05:13;;;;;;;7.65;3.30;;;30.60;99.00;;;;;;6345721;22;20022;-81
2022/07/07 05:08:16;;;;;;;5.70;3.55;;;30.60;98.70;;;;;;6346228;22;20330;-80
2022/07/07 05:11:20;;;;;;;7.70;3.80;;;30.60;98.50;;;;;;6345862;22;20453;-80
2022/07/07 05:14:25;;;;;;;6.65;3.17;;;30.90;97.90;;;;;;6345380;22;20022;-80
2022/07/07 05:17:28;;;;;;;5.60;3.05;;;31.50;97.20;;;;;;6346041;22;20038;-81
2022/07/07 05:20:32;;;;;;;6.75;2.90;;;31.90;96.40;;;;;;6326623;22;20014;-80
2022/07/07 05:23:36;;;;;;;10.20;3.75;;;32.50;95.70;;;;;;6335430;22;20021;-81
2022/07/07 05:26:40;;;;;;;8.65;3.70;;;32.60;95.20;;;;;;6346029;22;20021;-81
2022/07/07 05:29:44;;;;;;;5.88;3.33;;;32.80;94.80;;;;;;6345981;22;20021;-81
2022/07/07 05:32:48;;;;;;;6.63;3.45;;;32.30;95.30;;;;;;6344848;22;20017;-81
2022/07/07 05:35:52;;;;;;;9.27;3.55;;;32.90;94.90;;;;;;6326603;22;20077;-80
2022/07/07 05:38:56;;;;;;;4.90;3.10;;;33.30;94.60;;;;;;6345853;22;20014;-81
2022/07/07 05:42:00;;;;;;;8.73;3.30;;;33.70;94.20;;;;;;6345817;22;20014;-81
2022/07/07 05:45:07;;;;;;;6.32;3.13;;;33.20;94.30;;;;;;6345625;22;20022;-81
2022/07/07 05:48:12;;;;;;;7.25;3.25;;;32.30;94.80;;;;;;6345887;22;20458;-80
2022/07/07 05:51:16;;;;;;;10.25;3.88;;;31.30;95.60;;;;;;6345794;22;20334;-79
2022/07/07 05:54:20;;;;;;;6.88;3.40;;;30.90;96.60;;;;;;6346592;22;20465;-80
2022/07/07 05:57:24;;;;;;;7.78;3.60;;;30.50;96.90;;;;;;6328735;22;20014;-81
2022/07/07 06:00:29;;;;;;;10.82;3.70;;;30.00;97.40;;;;;;6346837;22;20346;-81
2022/07/07 06:03:32;;;;;;;7.95;3.67;;;31.00;97.10;;;;;;6346635;22;20421;-81
2022/07/07 06:06:36;;;;;;;7.63;4.03;;;31.20;96.10;;;;;;6347449;22;20042;-81
2022/07/07 06:09:41;;;;;;;8.25;3.20;;;32.20;94.90;;;;;;6347546;22;20285;-81
2022/07/07 06:12:45;;;;;;;10.25;3.22;;;32.10;94.80;;;;;;6328356;22;20018;-81
2022/07/07 06:15:49;;;;;;;6.78;3.53;;;32.60;94.40;;;;;;6347465;22;20345;-81
2022/07/07 06:18:53;;;;;;;10.10;3.83;;;30.70;95.70;;;;;;6325580;22;20013;-82
2022/07/07 06:21:57;;;;;;;6.60;3.45;;;29.70;96.90;;;;;;6342294;22;20017;-80
2022/07/07 06:25:03;;;;;;;8.63;3.78;;;29.90;97.00;;;;;;6326763;22;20501;-80
2022/07/07 06:28:07;;;;;;;6.65;3.58;;;30.00;97.00;;;;;;6327269;22;20018;-80
2022/07/07 06:31:11;;;;;;;10.00;3.45;;;31.20;96.00;;;;;;6345092;22;20022;-81
2022/07/07 06:34:15;;;;;;;9.65;2.97;;;32.00;95.20;;;;;;6325417;22;20369;-81
2022/07/07 06:37:18;;;;;;;5.55;3.28;;;32.90;94.40;;;;;;6346871;22;20022;-81
2022/07/07 06:40:24;;;;;;;7.93;3.72;;;32.80;93.80;;;;;;6347180;22;20014;-79
2022/07/07 06:43:28;;;;;;;6.38;2.83;;;32.50;94.10;;;;;;6326870;22;20021;-78
2022/07/07 06:46:33;;;;;;;8.80;3.72;;;32.90;93.80;;;;;;6344121;22;20022;-80
2022/07/07 06:49:38;;;;;;;12.90;3.10;;;33.00;93.40;;;;;;6346872;22;20030;-78
2022/07/07 06:52:42;;;;;;;7.10;3.25;;;33.70;92.90;;;;;;6346861;22;20014;-78
2022/07/07 06:55:47;;;;;;;5.93;2.72;;;32.40;93.40;;;;;;6345937;22;20018;-80
2022/07/07 06:58:51;;;;;;;6.22;3.00;;;32.30;93.30;;;;;;6327151;22;20318;-80
2022/07/07 07:01:55;;;;;;;8.88;3.72;;;33.30;92.80;;;;;;6346811;22;20449;-80
2022/07/07 07:04:59;;;;;;;9.75;2.70;;;34.30;91.60;;;;;;6345243;22;20326;-80
2022/07/07 07:08:03;;;;;;;5.88;2.60;;;35.20;90.50;;;;;;6326489;22;20018;-81
2022/07/07 07:11:07;;;;;;;4.70;2.13;;;36.20;89.40;;;;;;6346905;22;20018;-80
2022/07/07 07:14:11;;;;;;;6.47;2.33;;;36.60;85.30;;;;;;6346286;22;20044;-81
2022/07/07 07:17:15;;;;;;;7.43;2.15;;;36.70;85.80;;;;;;6346000;22;20026;-81
2022/07/07 07:20:19;;;;;;;4.65;2.40;;;36.80;86.70;;;;;;6347440;22;20014;-80
2022/07/07 07:23:24;;;;;;;8.40;2.20;;;36.40;84.00;;;;;;6338464;22;20022;-83
2022/07/07 07:26:28;;;;;;;8.13;2.05;;;36.20;84.50;;;;;;6347906;22;20333;-81
2022/07/07 07:29:32;;;;;;;6.20;2.42;;;36.00;83.90;;;;;;6347154;22;20033;-81
2022/07/07 07:32:36;;;;;;;7.00;2.30;;;36.40;83.40;;;;;;6348132;22;20508;-80
2022/07/07 07:35:40;;;;;;;6.75;2.00;;;37.10;81.10;;;;;;6347364;22;20018;-81
2022/07/07 07:38:44;;;;;;;4.15;1.67;;;37.50;80.30;;;;;;6346147;22;20038;-81
2022/07/07 07:41:48;;;;;;;3.75;2.13;;;37.30;79.20;;;;;;6345850;22;20017;-81
2022/07/07 07:45:11;;;;;;;4.63;2.05;;;37.80;78.80;;;;;;6347230;22;20322;-81
2022/07/07 07:48:15;;;;;;;6.90;2.60;;;38.40;78.50;;;;;;6347280;22;20021;-81
2022/07/07 07:51:19;;;;;;;4.70;2.00;;;36.60;81.10;;;;;;6327378;22;20014;-80
2022/07/07 07:54:23;;;;;;;6.03;1.90;;;36.80;80.10;;;;;;6346402;22;20003;-81
2022/07/07 07:57:27;;;;;;;6.72;2.03;;;35.30;79.80;;;;;;6345517;22;20021;-81
2022/07/07 08:00:31;;;;;;;4.10;2.15;;;37.00;79.30;;;;;;6346412;22;20014;-80
2022/07/07 08:03:35;;;;;;;4.80;2.30;;;37.50;78.10;;;;;;6345318;22;20021;-80
2022/07/07 08:06:39;;;;;;;8.07;2.22;;;37.90;77.40;;;;;;6346191;22;20021;-81
2022/07/07 08:09:44;;;;;;;6.18;2.25;;;38.30;76.20;;;;;;6346516;22;20018;-81
2022/07/07 08:12:49;;;;;;;4.60;1.83;;;38.10;77.20;;;;;;6346796;22;20026;-81
2022/07/07 08:15:53;;;;;;;5.95;2.45;;;39.70;75.10;;;;;;6346658;22;20014;-81
2022/07/07 08:18:57;;;;;;;3.08;1.50;;;39.60;72.90;;;;;;6347542;22;20014;-80
2022/07/07 08:22:01;;;;;;;8.85;1.92;;;38.40;72.40;;;;;;6344341;22;20014;-79
2022/07/07 08:25:06;;;;;;;4.60;1.55;;;39.70;71.20;;;;;;6346317;22;20022;-79
2022/07/07 08:28:10;;;;;;;2.60;1.50;;;40.80;70.10;;;;;;6327420;22;20017;-81
2022/07/07 08:31:14;;;;;;;2.67;1.25;;;41.90;68.90;;;;;;6347008;22;20018;-80
2022/07/07 08:34:18;;;;;;;2.70;1.67;;;40.70;67.50;;;;;;6327363;22;20013;-77
2022/07/07 08:37:21;;;;;;;4.57;1.45;;;38.70;68.00;;;;;;6346324;22;20017;-78
2022/07/07 08:40:26;;;;;;;5.10;1.45;;;38.90;70.50;;;;;;6346768;22;20014;-79
2022/07/07 08:43:30;;;;;;;4.10;1.30;;;41.10;68.60;;;;;;6345969;22;20010;-78
2022/07/07 08:46:34;;;;;;;5.38;1.55;;;42.00;66.60;;;;;;6346263;22;20018;-81
2022/07/07 08:49:38;;;;;;;5.65;1.38;;;42.50;65.80;;;;;;6327081;22;20021;-80
2022/07/07 08:52:43;;;;;;;2.75;1.50;;;43.20;65.10;;;;;;6346420;22;20317;-80
2022/07/07 08:55:48;;;;;;;7.70;1.42;;;41.90;64.10;;;;;;6344525;22;20017;-80
2022/07/07 08:58:52;;;;;;;7.38;1.80;;;40.20;65.00;;;;;;6345535;22;20441;-80
2022/07/07 09:02:01;;;;;;;2.60;1.42;;;42.20;64.90;;;;;;6325533;22;20778;-80
2022/07/07 09:05:05;;;;;;;2.63;1.10;;;43.20;63.10;;;;;;6346777;22;20441;-82
2022/07/07 09:08:23;;;;;;;3.45;1.30;;;43.90;62.70;;;;;;6346603;22;20649;-78
2022/07/07 09:11:30;;;;;;;2.95;1.40;;;44.80;62.70;;;;;;6327559;22;20018;-79
2022/07/07 09:14:43;;;;;;;1.67;1.20;;;44.10;61.30;;;;;;6342029;22;20014;-79
2022/07/07 09:17:47;;;;;;;3.00;1.35;;;40.90;61.60;;;;;;6327708;22;20065;-80
2022/07/07 09:20:51;;;;;;;3.95;1.55;;;40.10;63.50;;;;;;6346308;22;20010;-80
2022/07/07 09:24:06;;;;;;;5.32;1.60;;;40.60;64.00;;;;;;6345732;22;20457;-80
2022/07/07 09:27:11;;;;;;;3.65;1.75;;;39.60;65.70;;;;;;6346635;22;20026;-81
2022/07/07 09:30:37;;;;;;;4.20;1.70;;;41.30;63.90;;;;;;6336067;22;20492;-79
2022/07/07 09:33:42;;;;;;;3.83;1.60;;;40.60;63.00;;;;;;6345763;22;20022;-80
2022/07/07 09:40:19;;;;;;;4.75;1.80;;;43.80;62.80;;;;;;6346470;22;20014;-79
2022/07/07 09:43:24;;;;;;;3.30;1.45;;;43.60;61.30;;;;;;6345654;22;20010;-78
2022/07/07 09:46:29;;;;;;;6.15;1.77;;;41.80;63.60;;;;;;6346595;22;20025;-82
2022/07/07 09:49:33;;;;;;;4.97;2.33;;;43.10;62.60;;;;;;6346627;22;20484;-81
2022/07/07 09:52:39;;;;;;;6.30;1.50;;;40.40;63.40;;;;;;6326786;22;20014;-79
2022/07/07 09:56:00;;;;;;;4.53;1.63;;;43.20;63.80;;;;;;6324864;22;20049;-80
2022/07/07 09:59:09;;;;;;;3.10;1.70;;;44.70;62.10;;;;;;6326910;22;20338;-78
2022/07/07 10:02:25;;;;;;;4.65;1.70;;;40.40;62.20;;;;;;6345569;22;20014;-80
2022/07/07 10:05:30;;;;;;;6.47;1.60;;;43.70;62.80;;;;;;6345603;22;20014;-81
2022/07/07 10:08:35;;;;;;;6.55;1.85;;;43.70;62.30;;;;;;6327774;22;20318;-83
2022/07/07 10:11:40;;;;;;;3.53;1.60;;;43.60;61.60;;;;;;6346788;22;20018;-80
2022/07/07 10:14:46;;;;;;;7.47;1.63;;;40.10;63.20;;;;;;6346336;22;20021;-81
2022/07/07 10:17:51;;;;;;;3.83;1.75;;;39.60;63.60;;;;;;6346495;22;20018;-78
2022/07/07 10:20:56;;;;;;;6.32;1.70;;;40.30;63.00;;;;;;6346003;22;20018;-81
2022/07/07 10:24:01;;;;;;;7.68;1.95;;;40.00;63.60;;;;;;6345867;22;20014;-82
2022/07/07 10:27:05;;;;;;;3.85;1.70;;;42.10;62.90;;;;;;6346698;22;20018;-81
2022/07/07 10:30:10;;;;;;;4.68;1.63;;;42.70;61.40;;;;;;6346272;22;20021;-82
2022/07/07 10:33:13;;;;;;;1.60;1.30;;;40.70;62.30;;;;;;6328122;22;20014;-82
2022/07/07 10:36:17;;;;;;;3.97;1.80;;;42.70;61.80;;;;;;6346562;22;20014;-80
2022/07/07 10:39:23;;;;;;;4.25;1.30;;;40.60;61.10;;;;;;6348098;22;20018;-83
2022/07/07 10:42:38;;;;;;;6.28;1.67;;;41.00;62.80;;;;;;6329540;22;20018;-82
2022/07/07 10:45:51;;;;;;;6.13;1.55;;;43.80;61.10;;;;;;6347634;22;20018;-82
2022/07/07 10:49:08;;;;;;;4.32;1.50;;;45.70;59.60;;;;;;6346903;22;20018;-83
2022/07/07 10:52:15;;;;;;;4.25;1.40;;;46.20;58.60;;;;;;6348957;22;20013;-83
2022/07/07 10:55:19;;;;;;;4.95;1.20;;;47.30;57.50;;;;;;6329555;22;20025;-83
2022/07/07 10:58:59;;;;;;;8.77;1.38;;;46.50;57.70;;;;;;6349295;22;20021;-83
2022/07/07 11:02:04;;;;;;;3.83;1.60;;;46.30;57.90;;;;;;6180370;22;20020;-80
2022/07/07 11:05:14;;;;;;;2.42;1.35;;;43.60;58.10;;;;;;6346425;22;20013;-80
2022/07/07 11:08:18;;;;;;;;;;;39.10;61.10;;;;;;6348287;22;20017;-78
2022/07/07 11:11:23;;;;;;;4.97;1.70;;;39.10;62.70;;;;;;6345879;22;19926;-82
2022/07/07 11:14:27;;;;;;;3.13;1.70;;;40.30;60.60;;;;;;6347843;22;20018;-82
2022/07/07 11:17:33;;;;;;;3.75;1.58;;;42.00;59.70;;;;;;6347126;22;20014;-82
2022/07/07 11:20:59;;;;;;;4.97;1.23;;;42.50;57.50;;;;;;6346169;22;20017;-80
2022/07/07 11:24:14;;;;;;;5.82;1.85;;;43.20;57.90;;;;;;6346225;22;20018;-82
2022/07/07 11:27:27;;;;;;;9.55;1.70;;;40.90;60.10;;;;;;6348224;22;20046;-81
2022/07/07 11:30:32;;;;;;;4.78;1.48;;;41.90;59.30;;;;;;6328106;22;20013;-82
2022/07/07 11:33:38;;;;;;;3.20;1.40;;;42.30;59.40;;;;;;6327690;22;20022;-82
2022/07/07 11:36:42;;;;;;;2.72;1.70;;;40.00;60.30;;;;;;6347152;22;20018;-82
2022/07/07 11:39:48;;;;;;;3.08;1.65;;;38.30;60.90;;;;;;6346976;22;20018;-82
2022/07/07 11:42:52;;;;;;;4.20;1.52;;;36.90;63.40;;;;;;6346826;22;20022;-82
2022/07/07 11:45:56;;;;;;;13.07;2.40;;;37.80;63.20;;;;;;6327099;22;20469;-80
2022/07/07 11:49:00;;;;;;;7.22;2.08;;;39.80;62.60;;;;;;6346453;22;20014;-78
2022/07/07 11:52:04;;;;;;;2.67;1.55;;;41.20;60.40;;;;;;6346760;22;20596;-80
2022/07/07 11:55:09;;;;;;;5.35;2.42;;;40.20;60.20;;;;;;6344454;22;20022;-80
2022/07/07 11:58:13;;;;;;;6.35;1.70;;;39.00;62.20;;;;;;6325851;22;20465;-81
2022/07/07 12:01:17;;;;;;;3.25;1.67;;;39.80;61.20;;;;;;6344466;22;20455;-81
2022/07/07 12:04:21;;;;;;;4.95;1.77;;;41.40;60.30;;;;;;6342365;22;20018;-82
2022/07/07 12:07:25;;;;;;;3.90;1.65;;;42.80;59.50;;;;;;6347063;22;20014;-80
2022/07/07 12:10:35;;;;;;;8.43;2.15;;;44.20;58.20;;;;;;6328401;22;20013;-81
2022/07/07 12:13:39;;;;;;;3.90;1.95;;;42.70;58.80;;;;;;6347727;22;20050;-80
2022/07/07 12:16:50;;;;;;;6.45;2.10;;;42.10;59.30;;;;;;6346948;22;20018;-80
2022/07/07 12:19:54;;;;;;;4.78;2.03;;;41.10;60.40;;;;;;6346522;22;20009;-81
2022/07/07 12:23:00;;;;;;;5.50;2.92;;;41.50;59.70;;;;;;6320978;22;20334;-82
2022/07/07 12:26:17;;;;;;;3.25;1.92;;;42.30;59.80;;;;;;6327340;22;20014;-81
2022/07/07 12:29:22;;;;;;;5.50;1.90;;;40.70;60.30;;;;;;6327567;22;20022;-82
2022/07/07 12:32:26;;;;;;;5.13;1.60;;;41.60;59.00;;;;;;6347595;22;20017;-80
2022/07/07 12:35:37;;;;;;;4.57;1.90;;;41.80;60.00;;;;;;6324817;22;20033;-80
2022/07/07 12:38:47;;;;;;;5.65;2.20;;;42.10;59.80;;;;;;6345438;22;20468;-81
2022/07/07 12:41:53;;;;;;;3.90;1.70;;;42.60;59.60;;;;;;6324479;22;20021;-81
2022/07/07 12:45:10;;;;;;;3.65;1.73;;;43.50;58.70;;;;;;6324306;22;20025;-82
2022/07/07 12:48:16;;;;;;;4.70;1.80;;;43.40;58.30;;;;;;6344907;22;20338;-81
2022/07/07 12:51:25;;;;;;;7.63;1.92;;;43.00;59.50;;;;;;6325743;22;20022;-82
2022/07/07 12:54:31;;;;;;;5.38;2.03;;;42.20;58.70;;;;;;6344438;22;20342;-82
2022/07/07 12:57:35;;;;;;;3.95;1.77;;;41.90;58.90;;;;;;6323607;22;20019;-80
2022/07/07 13:00:40;;;;;;;8.63;1.85;;;39.90;58.70;;;;;;6341317;22;20014;-77
2022/07/07 13:03:47;;;;;;;5.57;1.88;;;37.30;62.30;;;;;;6343446;22;20013;-79
2022/07/07 13:06:54;;;;;;;2.80;1.90;;;38.40;61.10;;;;;;6326398;22;20025;-82
2022/07/07 13:09:58;;;;;;;4.78;1.80;;;39.90;59.40;;;;;;6308081;22;20018;-82
2022/07/07 13:13:02;;;;;;;5.88;1.65;;;41.00;58.20;;;;;;6328165;22;20017;-83
2022/07/07 13:16:07;;;;;;;4.35;1.67;;;41.70;58.00;;;;;;6327577;22;20014;-81
2022/07/07 13:19:12;;;;;;;4.10;1.95;;;41.90;57.30;;;;;;6345908;22;20018;-84
2022/07/07 13:22:16;;;;;;;15.43;1.83;;;42.10;57.30;;;;;;6344521;22;20014;-83
2022/07/07 13:25:20;;;;;;;4.03;1.42;;;42.30;56.60;;;;;;6349348;22;20018;-85
2022/07/07 13:28:26;;;;;;;4.05;1.75;;;42.20;56.40;;;;;;6347781;22;20022;-85
2022/07/07 13:31:30;;;;;;;1.63;1.40;;;41.40;56.00;;;;;;6350363;22;20013;-83
2022/07/07 13:34:34;;;;;;;3.80;1.52;;;40.60;57.60;;;;;;6347662;22;20018;-82
2022/07/07 13:37:38;;;;;;;4.20;1.70;;;40.30;58.40;;;;;;6329127;22;20041;-84
2022/07/07 13:40:42;;;;;;;5.40;1.60;;;39.80;57.70;;;;;;6330912;22;20014;-84
2022/07/07 13:43:46;;;;;;;3.53;1.67;;;39.60;58.10;;;;;;6348375;22;20014;-84
2022/07/07 13:46:51;;;;;;;3.80;1.80;;;39.40;58.30;;;;;;6350036;22;20021;-82
2022/07/07 13:49:59;;;;;;;3.17;1.80;;;38.90;58.70;;;;;;6331571;22;20013;-82
2022/07/07 13:53:04;;;;;;;5.13;1.63;;;38.60;59.70;;;;;;6348294;22;20018;-82
2022/07/07 13:56:09;;;;;;;3.45;1.70;;;38.50;58.90;;;;;;6348163;22;20055;-83
2022/07/07 13:59:14;;;;;;;3.55;1.50;;;38.80;60.20;;;;;;6348709;22;20014;-80
2022/07/07 14:02:18;;;;;;;8.40;1.90;;;39.30;60.50;;;;;;6345956;22;20026;-81
2022/07/07 14:05:23;;;;;;;5.10;2.10;;;39.50;59.90;;;;;;6329151;22;20014;-79
2022/07/07 14:08:27;;;;;;;3.83;1.73;;;38.80;60.10;;;;;;6327179;22;20022;-83
2022/07/07 14:11:32;;;;;;;3.92;2.10;;;38.30;60.80;;;;;;6326764;22;20026;-77
2022/07/07 14:14:36;;;;;;;4.68;1.60;;;37.90;60.70;;;;;;6347257;22;20018;-83
2022/07/07 14:17:40;;;;;;;3.08;1.60;;;37.80;61.70;;;;;;6330105;22;20025;-83
2022/07/07 14:20:44;;;;;;;4.82;1.55;;;38.30;61.50;;;;;;6349297;22;20045;-82
2022/07/07 14:23:48;;;;;;;2.42;1.35;;;39.00;60.80;;;;;;6320022;22;20310;-82
2022/07/07 14:26:53;;;;;;;4.85;1.60;;;39.20;61.30;;;;;;6349072;22;20449;-83
2022/07/07 14:29:59;;;;;;;3.35;1.60;;;39.00;61.00;;;;;;6349042;22;20020;-82
2022/07/07 14:33:03;;;;;;;4.68;1.35;;;39.30;61.20;;;;;;6329660;22;20037;-82
2022/07/07 14:36:08;;;;;;;2.20;1.38;;;39.30;60.30;;;;;;6311595;22;20015;-83
2022/07/07 14:39:12;;;;;;;6.15;1.70;;;39.00;60.70;;;;;;6328815;22;20029;-83
2022/07/07 14:42:17;;;;;;;3.88;1.40;;;38.90;60.30;;;;;;6330317;22;20014;-82
2022/07/07 14:45:22;;;;;;;5.20;1.48;;;38.60;61.00;;;;;;6347795;22;20024;-82
2022/07/07 14:48:29;;;;;;;2.03;1.30;;;38.30;61.10;;;;;;6328931;22;20069;-81
2022/07/07 14:51:34;;;;;;;3.03;1.33;;;38.20;61.40;;;;;;6346803;22;20022;-81
2022/07/07 14:54:38;;;;;;;1.90;1.17;;;38.40;61.20;;;;;;6348808;22;20014;-79
2022/07/07 14:57:42;;;;;;;6.97;1.52;;;38.50;59.80;;;;;;6349125;22;20025;-81
2022/07/07 15:00:46;;;;;;;2.90;1.15;;;38.00;60.20;;;;;;6349136;22;20030;-81
2022/07/07 15:03:51;;;;;;;2.42;1.45;;;37.60;60.80;;;;;;6347991;22;20010;-80
2022/07/07 15:06:56;;;;;;;2.80;1.33;;;37.10;61.50;;;;;;6347635;22;20268;-81
2022/07/07 15:10:00;;;;;;;1.70;1.13;;;36.80;62.40;;;;;;6348106;22;20065;-81
2022/07/07 15:13:04;;;;;;;3.92;1.52;;;36.70;60.90;;;;;;6329098;22;20025;-79
2022/07/07 15:16:08;;;;;;;1.80;1.20;;;36.70;62.70;;;;;;6346294;22;20030;-81
2022/07/07 15:19:12;;;;;;;3.70;1.55;;;36.50;62.80;;;;;;6348818;22;20017;-81
2022/07/07 15:22:16;;;;;;;10.52;1.50;;;36.50;63.30;;;;;;6342304;22;20632;-80
2022/07/07 15:25:20;;;;;;;3.58;1.48;;;36.60;63.00;;;;;;6346290;22;20014;-79
2022/07/07 15:28:28;;;;;;;4.25;1.20;;;36.40;61.70;;;;;;6347559;22;20017;-80
2022/07/07 15:31:33;;;;;;;3.38;1.95;;;36.20;61.50;;;;;;6346787;22;20326;-80
2022/07/07 15:34:37;;;;;;;2.92;1.40;;;36.20;61.90;;;;;;6308467;22;20064;-80
2022/07/07 15:37:41;;;;;;;4.90;1.52;;;36.20;62.20;;;;;;6346272;22;20022;-77
2022/07/07 15:40:45;;;;;;;6.05;1.38;;;36.20;62.40;;;;;;6346532;22;20014;-83
2022/07/07 15:43:49;;;;;;;4.93;1.35;;;36.10;61.70;;;;;;6326708;22;20011;-83
2022/07/07 15:46:54;;;;;;;8.45;2.15;;;35.90;62.30;;;;;;6310553;22;20018;-83
2022/07/07 15:49:59;;;;;;;2.35;1.40;;;35.70;62.20;;;;;;6328547;22;20022;-81
2022/07/07 15:53:03;;;;;;;2.85;1.40;;;35.30;62.50;;;;;;6347999;22;20034;-84
2022/07/07 15:56:09;;;;;;;1.98;1.42;;;34.90;62.40;;;;;;6329360;22;20014;-81
2022/07/07 15:59:13;;;;;;;4.72;1.45;;;34.60;62.70;;;;;;6309826;22;20021;-81
2022/07/07 16:02:17;;;;;;;4.90;1.73;;;34.30;62.70;;;;;;6327933;22;20325;-80
2022/07/07 16:05:21;;;;;;;2.78;1.50;;;34.20;62.90;;;;;;6328480;22;20445;-81